createdAt,value
2022-10-05T00:02:26.026Z,16.2
2022-10-05T00:07:25.788Z,16.2
2022-10-05T00:12:27.179Z,16.2
2022-10-05T00:17:27.572Z,16.2
2022-10-05T00:22:25.564Z,16.1
2022-10-05T00:27:25.348Z,16.2
2022-10-05T00:32:25.304Z,16.2
2022-10-05T00:37:25.149Z,16.2
2022-10-05T00:47:25.085Z,16.2
2022-10-05T00:52:24.983Z,16.2
2022-10-05T00:57:24.852Z,16.2
2022-10-05T01:02:24.855Z,16.2
2022-10-05T01:12:24.617Z,16.2
2022-10-05T01:17:24.752Z,16.2
2022-10-05T01:18:52.222Z,16.2
2022-10-05T01:22:24.603Z,16.2
2022-10-05T01:32:24.417Z,16.2
2022-10-05T01:37:24.311Z,16.2
2022-10-05T01:42:26.541Z,16.2
2022-10-05T01:47:25.521Z,16.2
2022-10-05T01:52:24.117Z,16.2
2022-10-05T01:57:24.055Z,16.2
2022-10-05T02:07:23.940Z,16.2
2022-10-05T02:12:23.746Z,16.2
2022-10-05T02:17:25.680Z,16.2
2022-10-05T02:22:23.716Z,16.2
2022-10-05T02:27:24.721Z,16.3
2022-10-05T02:32:24.920Z,16.2
2022-10-05T02:47:23.449Z,16.2
2022-10-05T02:52:23.375Z,16.2
2022-10-05T02:57:23.265Z,16.2
2022-10-05T03:02:23.304Z,16.3
2022-10-05T03:07:23.103Z,16.2
2022-10-05T03:12:23.057Z,16.2
2022-10-05T03:17:22.971Z,16.3
2022-10-05T03:22:22.925Z,16.3
2022-10-05T03:27:22.751Z,16.2
2022-10-05T03:32:25.307Z,16.2
2022-10-05T03:37:22.602Z,16.2
2022-10-05T03:42:24.872Z,16.2
2022-10-05T03:47:22.452Z,16.2
2022-10-05T03:52:22.341Z,16.2
2022-10-05T03:57:00.551Z,16.2
2022-10-05T03:57:22.253Z,16.2
2022-10-05T04:02:22.218Z,16.2
2022-10-05T04:12:22.071Z,16.2
2022-10-05T04:17:21.955Z,16.2
2022-10-05T04:22:23.918Z,16.2
2022-10-05T04:27:21.779Z,16.1
2022-10-05T04:37:21.825Z,16.1
2022-10-05T04:42:23.496Z,16.1
2022-10-05T04:47:25.271Z,16.1
2022-10-05T04:52:21.562Z,16.1
2022-10-05T04:57:21.546Z,16.0
2022-10-05T05:02:22.797Z,16.0
2022-10-05T05:07:22.490Z,15.9
2022-10-05T05:12:21.290Z,15.9
2022-10-05T05:17:21.143Z,15.9
2022-10-05T05:22:21.201Z,15.9
2022-10-05T05:27:20.959Z,15.9
2022-10-05T05:32:20.959Z,15.9
2022-10-05T05:47:20.802Z,15.8
2022-10-05T05:52:20.621Z,15.8
2022-10-05T05:57:20.455Z,15.8
2022-10-05T06:02:20.508Z,15.7
2022-10-05T06:04:24.887Z,15.7
2022-10-05T06:07:20.263Z,15.7
2022-10-05T06:12:20.374Z,15.7
2022-10-05T06:17:21.575Z,15.7
2022-10-05T06:22:20.171Z,15.7
2022-10-05T06:35:59.338Z,15.8
2022-10-05T06:37:24.277Z,15.9
2022-10-05T06:38:56.307Z,15.9
2022-10-05T06:42:46.890Z,15.9
2022-10-05T06:47:30.080Z,15.9
2022-10-05T06:53:16.559Z,16.0
2022-10-05T06:54:43.642Z,16.0
2022-10-05T06:57:20.539Z,16.1
2022-10-05T07:02:06.843Z,16.1
2022-10-05T07:07:08.570Z,16.2
2022-10-05T07:07:19.262Z,16.2
2022-10-05T07:13:16.739Z,16.2
2022-10-05T07:14:10.256Z,16.2
2022-10-05T07:14:50.293Z,16.2
2022-10-05T07:17:19.290Z,16.2
2022-10-05T07:22:19.373Z,16.2
2022-10-05T07:27:19.281Z,16.3
2022-10-05T07:32:19.265Z,16.4
2022-10-05T07:37:19.139Z,16.4
2022-10-05T07:42:19.011Z,16.5
2022-10-05T07:47:19.035Z,16.6
2022-10-05T07:52:18.890Z,16.7
2022-10-05T07:57:18.906Z,16.7
2022-10-05T08:02:18.996Z,16.8
2022-10-05T08:07:18.842Z,16.9
2022-10-05T08:12:18.920Z,16.9
2022-10-05T08:16:25.443Z,17.1
2022-10-05T08:17:21.694Z,17.1
2022-10-05T08:22:20.069Z,17.1
2022-10-05T08:27:18.835Z,17.4
2022-10-05T08:32:20.938Z,17.5
2022-10-05T08:37:18.746Z,17.5
2022-10-05T08:42:18.781Z,17.8
2022-10-05T08:43:53.268Z,17.9
2022-10-05T08:47:18.816Z,17.8
2022-10-05T08:52:22.752Z,17.6
2022-10-05T08:57:18.833Z,17.6
2022-10-05T08:57:46.715Z,17.6
2022-10-05T09:02:18.858Z,17.6
2022-10-05T09:07:18.869Z,17.5
2022-10-05T09:12:20.924Z,17.4
2022-10-05T09:17:29.277Z,17.2
2022-10-05T09:18:24.859Z,17.2
2022-10-05T09:22:18.866Z,17.3
2022-10-05T09:27:20.003Z,17.2
2022-10-05T09:27:53.020Z,17.3
2022-10-05T09:32:18.910Z,17.4
2022-10-05T09:37:18.900Z,17.4
2022-10-05T09:39:03.084Z,17.4
2022-10-05T09:41:24.385Z,17.4
2022-10-05T09:42:19.999Z,17.4
2022-10-05T09:57:19.082Z,17.6
2022-10-05T10:02:19.113Z,17.6
2022-10-05T10:03:22.677Z,17.6
2022-10-05T10:03:53.344Z,17.6
2022-10-05T10:07:18.984Z,17.6
2022-10-05T10:12:19.009Z,17.4
2022-10-05T10:17:19.092Z,17.1
2022-10-05T10:22:18.961Z,17.1
2022-10-05T10:24:02.355Z,17.0
2022-10-05T10:27:18.976Z,16.8
2022-10-05T10:32:19.011Z,16.7
2022-10-05T10:33:11.252Z,16.7
2022-10-05T10:37:18.957Z,16.5
2022-10-05T10:42:23.807Z,16.4
2022-10-05T10:47:18.929Z,16.4
2022-10-05T10:52:18.945Z,16.5
2022-10-05T10:53:24.540Z,16.5
2022-10-05T11:02:50.514Z,16.5
2022-10-05T11:07:19.015Z,16.6
2022-10-05T11:12:18.979Z,16.6
2022-10-05T11:18:51.871Z,16.6
2022-10-05T11:22:19.026Z,16.6
2022-10-05T11:27:18.857Z,16.5
2022-10-05T11:42:18.723Z,16.5
2022-10-05T11:43:06.705Z,16.5
2022-10-05T11:47:18.856Z,16.7
2022-10-05T11:52:18.650Z,16.6
2022-10-05T11:57:22.798Z,16.2
2022-10-05T12:07:20.011Z,15.9
2022-10-05T12:08:30.878Z,15.9
2022-10-05T12:22:18.488Z,15.4
2022-10-05T12:27:18.448Z,15.5
2022-10-05T12:32:18.415Z,15.4
2022-10-05T12:37:18.341Z,15.3
2022-10-05T12:42:18.339Z,15.4
2022-10-05T12:42:54.162Z,15.4
2022-10-05T12:47:18.322Z,15.3
2022-10-05T12:52:18.318Z,15.4
2022-10-05T12:53:03.977Z,15.4
2022-10-05T12:54:03.707Z,15.4
2022-10-05T12:57:18.145Z,15.4
2022-10-05T13:02:18.106Z,15.4
2022-10-05T13:07:18.025Z,15.6
2022-10-05T13:12:18.472Z,15.8
2022-10-05T13:17:20.151Z,15.9
2022-10-05T13:32:17.951Z,16.0
2022-10-05T13:37:17.597Z,16.3
2022-10-05T13:42:17.561Z,16.1
2022-10-05T13:52:17.467Z,15.8
2022-10-05T13:54:10.871Z,15.8
2022-10-05T13:57:17.329Z,15.6
2022-10-05T14:02:17.409Z,15.5
2022-10-05T14:07:17.295Z,15.6
2022-10-05T14:12:19.118Z,15.6
2022-10-05T14:17:18.255Z,15.7
2022-10-05T14:22:17.037Z,15.6
2022-10-05T14:25:21.744Z,15.6
2022-10-05T14:27:18.108Z,15.5
2022-10-05T14:32:17.110Z,15.3
2022-10-05T14:37:18.041Z,14.4
2022-10-05T14:42:20.018Z,14.6
2022-10-05T14:47:18.010Z,15.1
2022-10-05T14:57:25.344Z,15.0
2022-10-05T14:58:10.103Z,15.0
2022-10-05T15:01:39.422Z,15.1
2022-10-05T15:07:16.393Z,15.1
2022-10-05T15:12:17.575Z,14.8
2022-10-05T15:17:16.246Z,14.8
2022-10-05T15:22:00.312Z,14.9
2022-10-05T15:23:13.785Z,15.0
2022-10-05T15:27:15.848Z,14.9
2022-10-05T15:32:16.022Z,14.9
2022-10-05T15:36:50.341Z,15.0
2022-10-05T15:42:15.810Z,15.1
2022-10-05T15:47:15.787Z,14.9
2022-10-05T15:52:15.741Z,13.7
2022-10-05T15:59:52.575Z,13.4
2022-10-05T16:03:23.869Z,13.5
2022-10-05T16:07:21.014Z,13.6
2022-10-05T16:07:56.164Z,13.5
2022-10-05T16:09:59.064Z,13.5
2022-10-05T16:12:02.373Z,13.4
2022-10-05T16:12:44.573Z,13.4
2022-10-05T16:17:04.591Z,13.4
2022-10-05T16:22:14.855Z,13.2
2022-10-05T16:27:14.530Z,13.3
2022-10-05T16:34:19.712Z,13.3
2022-10-05T16:35:36.915Z,13.2
2022-10-05T16:37:13.985Z,13.2
2022-10-05T16:38:33.242Z,13.2
2022-10-05T16:41:31.126Z,13.2
2022-10-05T16:47:07.420Z,13.1
2022-10-05T16:47:13.460Z,13.1
2022-10-05T16:50:56.190Z,12.9
2022-10-05T16:52:13.406Z,12.9
2022-10-05T16:57:13.179Z,12.9
2022-10-05T17:02:13.089Z,12.8
2022-10-05T17:07:12.861Z,12.9
2022-10-05T17:11:03.309Z,12.9
2022-10-05T17:14:23.466Z,12.9
2022-10-05T17:17:12.372Z,12.8
2022-10-05T17:22:13.586Z,12.8
2022-10-05T17:27:22.571Z,12.6
2022-10-05T17:32:11.800Z,12.6
2022-10-05T17:34:04.896Z,12.6
2022-10-05T17:37:18.607Z,12.6
2022-10-05T17:42:11.524Z,12.4
2022-10-05T17:47:13.347Z,12.3
2022-10-05T17:51:32.191Z,12.2
2022-10-05T17:52:37.330Z,12.2
2022-10-05T18:02:10.984Z,12.1
2022-10-05T18:07:10.824Z,12.2
2022-10-05T18:17:09.947Z,12.1
2022-10-05T18:22:09.753Z,12.0
2022-10-05T18:23:38.630Z,11.9
2022-10-05T18:27:09.461Z,11.9
2022-10-05T18:34:36.828Z,11.9
2022-10-05T18:37:34.008Z,11.9
2022-10-05T18:45:24.854Z,11.8
2022-10-05T18:47:08.803Z,11.8
2022-10-05T18:52:08.636Z,11.8
2022-10-05T18:57:08.019Z,11.8
2022-10-05T19:02:08.054Z,11.6
2022-10-05T19:12:07.411Z,11.5
2022-10-05T19:17:07.182Z,11.6
2022-10-05T19:22:08.310Z,11.6
2022-10-05T19:26:20.503Z,11.6
2022-10-05T19:27:06.728Z,11.5
2022-10-05T19:29:06.919Z,11.5
2022-10-05T19:32:06.409Z,11.4
2022-10-05T19:33:25.162Z,11.5
2022-10-05T19:37:06.271Z,11.5
2022-10-05T19:42:05.957Z,11.5
2022-10-05T19:47:05.758Z,11.4
2022-10-05T19:52:06.726Z,11.2
2022-10-05T19:57:05.269Z,11.2
2022-10-05T20:02:05.201Z,11.2
2022-10-05T20:06:21.712Z,11.2
2022-10-05T20:07:04.889Z,11.1
2022-10-05T20:17:04.344Z,11.1
2022-10-05T20:27:03.761Z,11.0
2022-10-05T20:32:03.448Z,10.9
2022-10-05T20:37:03.198Z,11.0
2022-10-05T20:42:03.143Z,10.9
2022-10-05T20:43:09.889Z,10.9
2022-10-05T20:47:02.522Z,10.9
2022-10-05T20:52:02.343Z,10.8
2022-10-05T20:53:15.308Z,10.9
2022-10-05T20:57:01.834Z,10.8
2022-10-05T20:59:22.252Z,10.9
2022-10-05T21:02:01.594Z,10.8
2022-10-05T21:05:41.152Z,10.8
2022-10-05T21:07:01.210Z,10.8
2022-10-05T21:12:02.233Z,10.6
2022-10-05T21:17:00.694Z,10.7
2022-10-05T21:24:10.748Z,10.6
2022-10-05T21:27:00.444Z,10.6
2022-10-05T21:27:46.933Z,10.6
2022-10-05T21:31:59.931Z,10.5
2022-10-05T21:37:10.287Z,10.5
2022-10-05T21:41:59.256Z,10.6
2022-10-05T21:46:58.972Z,10.4
2022-10-05T21:49:26.849Z,10.4
2022-10-05T21:51:12.768Z,10.4
2022-10-05T21:51:58.699Z,10.4
2022-10-05T21:56:58.458Z,10.4
2022-10-05T22:01:58.153Z,10.5
2022-10-05T22:06:57.824Z,10.4
2022-10-05T22:11:57.639Z,10.4
2022-10-05T22:16:57.381Z,10.5
2022-10-05T22:21:57.290Z,10.4
2022-10-05T22:26:56.502Z,10.4
2022-10-05T22:31:56.216Z,10.2
2022-10-05T22:46:55.216Z,10.1
2022-10-05T22:51:54.793Z,10.1
2022-10-05T22:56:54.534Z,10.0
2022-10-05T23:01:54.352Z,10.1
2022-10-05T23:06:53.940Z,9.9
2022-10-05T23:11:53.583Z,9.9
2022-10-05T23:16:53.321Z,9.8
2022-10-05T23:21:52.830Z,9.8
2022-10-05T23:26:52.463Z,9.9
2022-10-05T23:31:52.355Z,9.8
2022-10-05T23:36:51.841Z,9.6
2022-10-05T23:41:51.552Z,9.6
2022-10-05T23:51:54.975Z,9.5
2022-10-05T23:56:50.507Z,9.6
